KWDG/WDG METAR and TAF weather

Enter ICAO airport designator
Station Type Date Time Source
KWDG METAR 2020/02/25 00:45 UTC NOAA

KWDG 250045Z 36008KT 10SM SCT037 07/04 A2982


Station Type Date Time Source
KWDG Decoded METAR 2020/02/25 00:45 UTC NOAA

Enid, Enid Woodring Regional Airport, OK, United States (KWDG) 36-22-45N 097-47-28W
Feb 24, 2020 - 07:45 PM EST / 2020.02.25 0045 UTC
Wind: from the N (360 degrees) at 9 MPH (8 KT):0
Visibility: 10 mile(s):0
Sky conditions: partly cloudy
Temperature: 44 F (7 C)
Dew Point: 39 F (4 C)
Relative Humidity: 81%
Pressure (altimeter): 29.82 in. Hg (1009 hPa)
ob: KWDG 250045Z 36008KT 10SM SCT037 07/04 A2982
cycle: 1

Station Type Date Time Source
KWDG TAF UTC NOAA

Error!

Example: see airport list